Time;durP1;ratioP1;P1;durP2;ratioP2;P2;SDS_P1;SDS_P2;PMS_P1;PMS_P2;Temp;Humidity;BMP_temperature;BMP_pressure;BME280_temperature;BME280_humidity;BME280_pressure;Samples;Min_cycle;Max_cycle;Signal;HPM_P1;HPM_P2
2020/12/13 00:00:13;;;;;;;21.00;14.52;;;7.80;99.90;;;;;;5008641;28;20198;-83
2020/12/13 00:02:39;;;;;;;14.45;11.50;;;7.70;99.90;;;;;;5010993;28;20560;-83
2020/12/13 00:05:06;;;;;;;11.75;10.45;;;7.70;99.90;;;;;;4995293;28;20214;-83
2020/12/13 00:07:33;;;;;;;8.55;7.65;;;7.80;99.90;;;;;;5012397;28;20208;-84
2020/12/13 00:10:00;;;;;;;7.95;6.63;;;8.00;99.90;;;;;;4994152;28;20205;-84
2020/12/13 00:12:27;;;;;;;8.85;7.40;;;7.80;99.90;;;;;;4993638;28;20198;-83
2020/12/13 00:14:53;;;;;;;9.00;7.75;;;7.80;99.90;;;;;;4995068;28;20197;-84
2020/12/13 00:17:19;;;;;;;7.15;6.45;;;7.80;99.90;;;;;;5009005;28;20202;-84
2020/12/13 00:19:46;;;;;;;7.38;5.70;;;7.80;99.90;;;;;;4994485;28;20713;-84
2020/12/13 00:22:12;;;;;;;6.47;5.88;;;7.70;99.90;;;;;;5010410;28;20311;-83
2020/12/13 00:24:39;;;;;;;6.75;6.15;;;7.70;99.90;;;;;;5010822;28;20201;-84
2020/12/13 00:27:06;;;;;;;8.18;7.30;;;7.80;99.90;;;;;;5001351;28;20276;-84
2020/12/13 00:29:33;;;;;;;7.20;6.45;;;7.80;99.90;;;;;;5007141;28;20228;-84
2020/12/13 00:31:59;;;;;;;7.35;5.88;;;8.00;99.90;;;;;;4996521;28;20198;-84
2020/12/13 00:34:26;;;;;;;6.97;6.22;;;7.80;99.90;;;;;;4999423;28;20595;-84
2020/12/13 00:36:52;;;;;;;6.63;5.93;;;7.80;99.90;;;;;;4995942;28;20248;-84
2020/12/13 00:39:19;;;;;;;6.60;6.00;;;7.70;99.90;;;;;;4997698;28;20268;-83
2020/12/13 00:41:49;;;;;;;7.18;6.47;;;7.70;99.90;;;;;;5008884;28;20245;-84
2020/12/13 00:44:17;;;;;;;6.35;5.75;;;7.80;99.90;;;;;;5009049;28;20225;-83
2020/12/13 00:46:43;;;;;;;6.53;5.90;;;7.80;99.90;;;;;;4995409;28;20241;-84
2020/12/13 00:49:10;;;;;;;5.90;5.40;;;7.80;99.90;;;;;;4992698;28;20210;-83
2020/12/13 00:51:36;;;;;;;6.40;5.80;;;7.80;99.90;;;;;;5005365;28;20523;-84
2020/12/13 00:54:03;;;;;;;5.57;5.07;;;7.80;99.90;;;;;;5010944;28;20225;-84
2020/12/13 00:56:29;;;;;;;6.78;5.82;;;7.70;99.90;;;;;;4992478;28;20240;-84
2020/12/13 00:58:56;;;;;;;5.85;5.28;;;7.70;99.90;;;;;;5007649;28;20417;-83
2020/12/13 01:01:23;;;;;;;5.43;4.93;;;7.70;99.90;;;;;;4997246;28;20249;-83
2020/12/13 01:03:50;;;;;;;5.65;5.15;;;7.60;99.90;;;;;;5008424;28;20193;-83
2020/12/13 01:06:21;;;;;;;5.68;5.10;;;7.50;99.90;;;;;;5009666;28;20209;-83
2020/12/13 01:08:48;;;;;;;6.10;5.60;;;7.40;99.90;;;;;;4999943;28;20671;-84
2020/12/13 01:11:14;;;;;;;6.28;5.13;;;7.40;99.90;;;;;;5005067;28;20553;-83
2020/12/13 01:13:42;;;;;;;5.13;4.63;;;7.50;99.90;;;;;;4991853;28;20663;-83
2020/12/13 01:16:09;;;;;;;5.45;4.80;;;7.60;99.90;;;;;;4991894;28;20210;-83
2020/12/13 01:18:36;;;;;;;5.72;4.60;;;7.70;99.90;;;;;;5004548;28;20240;-84
2020/12/13 01:21:02;;;;;;;5.47;5.05;;;7.70;99.90;;;;;;5001826;28;20181;-84
2020/12/13 01:23:29;;;;;;;4.90;4.50;;;7.70;99.90;;;;;;4990712;28;20198;-83
2020/12/13 01:25:55;;;;;;;4.75;4.32;;;7.60;99.90;;;;;;4994932;28;20221;-83
2020/12/13 01:28:21;;;;;;;4.57;4.18;;;7.50;99.90;;;;;;5002116;28;20526;-83
2020/12/13 01:30:48;;;;;;;5.15;4.65;;;7.50;99.90;;;;;;4998944;28;20703;-83
2020/12/13 01:33:14;;;;;;;4.07;3.67;;;7.80;99.90;;;;;;5008673;28;20647;-83
2020/12/13 01:35:42;;;;;;;4.50;4.10;;;7.60;99.90;;;;;;5003461;28;20660;-84
2020/12/13 01:38:08;;;;;;;4.47;3.80;;;7.50;99.90;;;;;;4990879;28;20222;-82
2020/12/13 01:40:34;;;;;;;4.07;3.65;;;7.40;99.90;;;;;;4996300;28;20255;-83
2020/12/13 01:43:01;;;;;;;3.92;3.35;;;7.30;99.90;;;;;;5010365;28;20283;-84
2020/12/13 01:45:27;;;;;;;4.18;3.55;;;7.30;99.90;;;;;;5008450;28;20236;-83
2020/12/13 01:47:53;;;;;;;4.18;3.78;;;7.40;99.90;;;;;;5010556;28;20229;-84
2020/12/13 01:50:37;;;;;;;4.30;3.20;;;7.40;99.90;;;;;;5006318;28;20429;-84
2020/12/13 01:53:15;;;;;;;4.70;4.30;;;7.40;99.90;;;;;;4993143;28;20205;-84
2020/12/13 01:55:43;;;;;;;4.13;3.75;;;7.50;99.90;;;;;;5009678;28;20197;-84
2020/12/13 01:58:14;;;;;;;3.55;3.30;;;7.60;99.90;;;;;;4991700;28;20194;-83
2020/12/13 02:00:45;;;;;;;4.13;3.80;;;7.70;99.90;;;;;;5004091;28;20198;-83
2020/12/13 02:03:19;;;;;;;4.47;2.90;;;7.50;99.90;;;;;;4999148;28;20221;-84
2020/12/13 02:06:01;;;;;;;4.15;3.85;;;7.60;99.90;;;;;;4994690;28;20202;-84
2020/12/13 02:08:38;;;;;;;5.10;4.57;;;7.70;99.90;;;;;;4993834;28;20287;-84
2020/12/13 02:11:10;;;;;;;5.03;4.53;;;7.70;99.90;;;;;;5005625;28;20201;-84
2020/12/13 02:13:43;;;;;;;6.05;3.92;;;7.80;99.90;;;;;;4997426;28;20219;-83
2020/12/13 02:16:11;;;;;;;5.68;5.18;;;7.80;99.90;;;;;;4997361;28;20202;-83
2020/12/13 02:18:41;;;;;;;5.00;4.55;;;7.80;99.90;;;;;;4997974;28;20209;-84
2020/12/13 02:21:10;;;;;;;5.68;5.07;;;7.70;99.90;;;;;;5004454;28;20197;-84
2020/12/13 02:23:41;;;;;;;4.72;4.18;;;7.70;99.90;;;;;;4999734;28;20238;-84
2020/12/13 02:26:09;;;;;;;4.47;4.05;;;7.70;99.90;;;;;;5000087;28;20655;-84
2020/12/13 02:28:37;;;;;;;5.10;4.70;;;7.70;99.90;;;;;;5010794;28;20221;-84
2020/12/13 02:31:07;;;;;;;5.00;4.50;;;7.80;99.90;;;;;;5000237;28;20198;-83
2020/12/13 02:33:36;;;;;;;5.18;4.65;;;7.80;99.90;;;;;;4992613;28;20216;-83
2020/12/13 02:36:05;;;;;;;5.20;4.70;;;7.80;99.90;;;;;;5007423;28;20663;-83
2020/12/13 02:38:33;;;;;;;6.03;5.53;;;7.80;99.90;;;;;;5010277;28;20264;-84
2020/12/13 02:41:02;;;;;;;5.93;5.43;;;8.10;99.90;;;;;;5006248;28;20565;-83
2020/12/13 02:43:28;;;;;;;6.20;5.60;;;7.80;99.90;;;;;;5009102;28;20311;-83
2020/12/13 02:45:55;;;;;;;6.78;5.28;;;7.80;99.90;;;;;;4996764;28;20204;-83
2020/12/13 02:48:23;;;;;;;7.35;5.43;;;7.80;99.90;;;;;;5005221;28;20209;-84
2020/12/13 02:50:49;;;;;;;6.03;5.00;;;7.80;99.90;;;;;;5006666;28;20199;-83
2020/12/13 02:53:15;;;;;;;6.57;5.15;;;7.90;99.90;;;;;;5009942;28;20204;-84
2020/12/13 02:55:42;;;;;;;4.75;4.35;;;7.70;99.90;;;;;;5008647;28;20793;-83
2020/12/13 02:58:09;;;;;;;5.60;5.07;;;7.90;99.90;;;;;;4990352;28;20198;-83
2020/12/13 03:00:36;;;;;;;5.47;4.93;;;7.80;99.90;;;;;;4994826;28;20209;-84
2020/12/13 03:03:02;;;;;;;5.20;4.70;;;7.70;99.90;;;;;;5008114;28;20706;-84
2020/12/13 03:05:28;;;;;;;7.35;4.55;;;7.70;99.90;;;;;;5007914;28;20185;-83
2020/12/13 03:07:55;;;;;;;5.38;4.10;;;7.70;99.90;;;;;;5009307;28;20271;-84
2020/12/13 03:10:21;;;;;;;5.35;4.05;;;7.70;99.90;;;;;;5007542;28;20209;-84
2020/12/13 03:12:47;;;;;;;5.03;4.13;;;7.80;99.90;;;;;;5008388;28;20193;-82
2020/12/13 03:15:15;;;;;;;5.20;4.15;;;7.80;99.90;;;;;;4996312;28;20201;-83
2020/12/13 03:17:41;;;;;;;4.65;4.25;;;7.80;99.90;;;;;;5013456;28;20222;-83
2020/12/13 03:20:08;;;;;;;4.97;4.50;;;7.80;99.90;;;;;;5000579;28;20195;-83
2020/12/13 03:22:34;;;;;;;4.32;3.92;;;7.80;99.90;;;;;;4994227;28;20218;-83
2020/12/13 03:25:00;;;;;;;4.75;4.25;;;7.90;99.90;;;;;;5008152;28;20597;-83
2020/12/13 03:27:27;;;;;;;5.20;4.70;;;7.80;99.90;;;;;;5011167;28;20207;-83
2020/12/13 03:29:53;;;;;;;4.90;4.50;;;7.80;99.90;;;;;;5011923;28;20251;-83
2020/12/13 03:32:22;;;;;;;4.85;4.45;;;7.80;99.90;;;;;;5011905;28;20210;-83
2020/12/13 03:34:48;;;;;;;4.90;4.40;;;7.80;99.90;;;;;;5005549;28;20221;-83
2020/12/13 03:37:16;;;;;;;5.88;4.97;;;7.80;99.90;;;;;;5012319;28;20613;-83
2020/12/13 03:39:43;;;;;;;5.20;4.70;;;7.70;99.90;;;;;;5004220;28;20190;-83
2020/12/13 03:42:10;;;;;;;4.90;4.45;;;7.70;99.90;;;;;;5007870;28;20252;-84
2020/12/13 03:44:36;;;;;;;4.10;3.67;;;7.70;99.90;;;;;;4993368;28;20584;-83
2020/12/13 03:47:02;;;;;;;9.15;4.40;;;7.70;99.90;;;;;;5001597;28;20225;-83
2020/12/13 03:49:30;;;;;;;6.00;4.60;;;7.70;99.90;;;;;;4993564;28;20684;-83
2020/12/13 03:51:56;;;;;;;5.35;4.95;;;7.70;99.90;;;;;;5006546;28;20597;-83
2020/12/13 03:54:22;;;;;;;4.60;3.92;;;7.50;99.90;;;;;;4994834;28;20621;-83
2020/12/13 03:56:49;;;;;;;4.65;4.25;;;7.40;99.90;;;;;;5010173;28;20232;-83
2020/12/13 03:59:15;;;;;;;5.20;4.65;;;7.50;99.90;;;;;;5006934;28;20226;-83
2020/12/13 04:01:41;;;;;;;4.35;4.00;;;7.50;99.90;;;;;;5012728;28;20244;-83
2020/12/13 04:04:10;;;;;;;6.20;5.60;;;7.50;99.90;;;;;;4993953;28;20543;-82
2020/12/13 04:06:39;;;;;;;4.85;4.45;;;7.40;99.90;;;;;;5006457;28;20232;-83
2020/12/13 04:09:06;;;;;;;6.07;4.97;;;7.50;99.90;;;;;;5005982;28;20201;-83
2020/12/13 04:11:32;;;;;;;4.30;3.90;;;7.50;99.90;;;;;;4996128;28;20229;-84
2020/12/13 04:13:59;;;;;;;5.60;5.10;;;7.50;99.90;;;;;;5002684;28;20576;-83
2020/12/13 04:16:30;;;;;;;5.50;4.95;;;7.60;99.90;;;;;;4996475;28;20206;-83
2020/12/13 04:18:56;;;;;;;5.70;5.20;;;7.60;99.90;;;;;;5007648;28;20256;-82
2020/12/13 04:21:24;;;;;;;6.47;5.70;;;7.70;99.90;;;;;;4998046;28;20202;-83
2020/12/13 04:23:54;;;;;;;5.50;5.00;;;7.70;99.90;;;;;;4992597;28;20202;-82
2020/12/13 04:26:22;;;;;;;6.05;5.45;;;7.70;99.90;;;;;;5007073;28;20197;-83
2020/12/13 04:28:49;;;;;;;5.18;4.68;;;7.80;99.90;;;;;;5012907;28;20193;-83
2020/12/13 04:31:16;;;;;;;6.65;5.45;;;7.70;99.90;;;;;;5006995;28;20236;-83
2020/12/13 04:33:44;;;;;;;5.82;5.00;;;7.70;99.90;;;;;;4997324;28;20190;-82
2020/12/13 04:36:12;;;;;;;8.63;5.35;;;7.60;99.90;;;;;;5000416;28;20201;-82
2020/12/13 04:38:40;;;;;;;6.20;5.60;;;7.70;99.90;;;;;;5010598;28;20674;-83
2020/12/13 04:41:10;;;;;;;12.48;5.15;;;7.80;99.90;;;;;;4994026;28;20285;-83
2020/12/13 04:43:41;;;;;;;6.25;5.65;;;7.70;99.90;;;;;;5005703;28;20634;-82
2020/12/13 04:46:11;;;;;;;5.97;5.13;;;7.70;99.90;;;;;;5008091;28;20194;-83
2020/12/13 04:48:38;;;;;;;5.60;4.95;;;7.80;99.90;;;;;;5009813;28;20202;-83
2020/12/13 04:51:08;;;;;;;5.30;4.80;;;7.80;99.90;;;;;;5002588;28;20205;-83
2020/12/13 04:53:39;;;;;;;6.90;6.30;;;7.80;99.90;;;;;;4997661;28;20597;-82
2020/12/13 04:56:11;;;;;;;5.25;4.68;;;7.70;99.90;;;;;;4998550;28;20214;-82
2020/12/13 04:58:42;;;;;;;6.80;5.43;;;7.60;99.90;;;;;;4992733;28;20285;-83
2020/12/13 05:01:14;;;;;;;5.95;5.00;;;7.60;99.90;;;;;;4996567;28;20660;-83
2020/12/13 05:03:42;;;;;;;4.75;4.35;;;7.70;99.90;;;;;;4999623;28;20328;-83
2020/12/13 05:06:11;;;;;;;5.97;4.50;;;8.20;99.90;;;;;;5004428;28;20652;-83
2020/12/13 05:08:40;;;;;;;5.72;5.10;;;7.70;99.90;;;;;;4992168;28;20194;-83
2020/12/13 05:11:08;;;;;;;5.32;4.82;;;7.70;99.90;;;;;;4992910;28;20209;-82
2020/12/13 05:13:38;;;;;;;5.22;4.72;;;7.80;99.90;;;;;;4991159;28;20686;-82
2020/12/13 05:16:07;;;;;;;4.93;4.43;;;7.80;99.90;;;;;;4993268;28;20300;-83
2020/12/13 05:18:39;;;;;;;5.15;4.18;;;7.80;99.90;;;;;;4990694;28;20194;-83
2020/12/13 05:21:05;;;;;;;5.03;4.57;;;7.90;99.90;;;;;;4995832;28;20186;-83
2020/12/13 05:23:34;;;;;;;5.28;4.40;;;8.20;99.90;;;;;;4991211;28;20280;-82
2020/12/13 05:26:01;;;;;;;7.18;5.10;;;7.80;99.90;;;;;;4995661;28;20190;-83
2020/12/13 05:28:29;;;;;;;4.35;3.95;;;7.80;99.90;;;;;;4993018;28;20221;-82
2020/12/13 05:30:57;;;;;;;6.13;5.05;;;7.80;99.90;;;;;;4993141;28;20225;-83
2020/12/13 05:33:28;;;;;;;5.28;4.68;;;7.80;99.90;;;;;;4993139;28;20202;-82
2020/12/13 05:36:00;;;;;;;4.70;3.92;;;7.90;99.90;;;;;;4992993;28;20205;-82
2020/12/13 05:38:32;;;;;;;4.43;3.95;;;7.70;99.90;;;;;;4990856;28;20655;-82
2020/12/13 05:40:59;;;;;;;5.00;4.50;;;7.80;99.90;;;;;;5004833;28;20212;-82
2020/12/13 05:43:29;;;;;;;5.45;4.95;;;7.80;99.90;;;;;;5001784;28;20256;-82
2020/12/13 05:46:21;;;;;;;5.88;5.00;;;8.00;99.90;;;;;;5001787;28;20204;-83
2020/12/13 05:49:02;;;;;;;5.45;5.05;;;7.80;99.90;;;;;;5010221;28;20219;-82
2020/12/13 05:51:39;;;;;;;4.63;4.22;;;7.80;99.90;;;;;;4996281;28;20749;-83
2020/12/13 05:54:11;;;;;;;5.82;5.22;;;7.80;99.90;;;;;;5007371;28;20197;-82
2020/12/13 05:56:40;;;;;;;4.10;3.70;;;7.90;99.90;;;;;;5002820;28;20206;-82
2020/12/13 05:59:07;;;;;;;5.05;4.55;;;7.90;99.90;;;;;;4997542;28;20280;-82
2020/12/13 06:01:36;;;;;;;6.35;4.90;;;7.90;99.90;;;;;;4995995;28;20285;-83
2020/12/13 06:04:10;;;;;;;4.60;4.20;;;7.90;99.90;;;;;;4992104;28;20586;-82
2020/12/13 06:06:42;;;;;;;5.43;4.45;;;7.90;99.90;;;;;;5004873;28;20200;-83
2020/12/13 06:09:10;;;;;;;4.38;3.97;;;8.80;99.90;;;;;;5010786;28;20237;-83
2020/12/13 06:11:43;;;;;;;5.10;4.53;;;7.80;99.90;;;;;;4997776;28;20201;-82
2020/12/13 06:14:17;;;;;;;4.55;3.85;;;7.80;99.90;;;;;;4990626;28;20829;-82
2020/12/13 06:16:45;;;;;;;4.72;4.25;;;7.80;99.90;;;;;;5007772;28;20201;-83
2020/12/13 06:19:14;;;;;;;5.75;5.35;;;7.70;99.90;;;;;;5009153;28;20229;-83
2020/12/13 06:21:42;;;;;;;4.60;4.20;;;7.80;99.90;;;;;;5008710;28;20221;-83
2020/12/13 06:24:09;;;;;;;4.63;4.22;;;7.70;99.90;;;;;;5008505;28;20275;-83
2020/12/13 06:26:36;;;;;;;4.25;3.95;;;7.70;99.90;;;;;;5007415;28;20186;-83
2020/12/13 06:29:04;;;;;;;5.20;4.55;;;7.60;99.90;;;;;;5000859;28;20660;-83
2020/12/13 06:31:33;;;;;;;4.07;3.78;;;7.60;99.90;;;;;;4992518;28;21272;-83
2020/12/13 06:34:00;;;;;;;6.82;4.03;;;7.70;99.90;;;;;;5001646;28;20281;-83
2020/12/13 06:36:27;;;;;;;3.80;3.50;;;7.70;99.90;;;;;;5008279;28;20697;-83
2020/12/13 06:38:56;;;;;;;5.70;3.78;;;8.20;99.90;;;;;;4993322;28;20208;-83
2020/12/13 06:41:26;;;;;;;3.90;3.60;;;7.80;99.90;;;;;;4993606;28;20201;-83
2020/12/13 06:44:00;;;;;;;3.95;3.65;;;8.10;99.90;;;;;;4990528;28;20226;-83
2020/12/13 06:46:27;;;;;;;3.55;3.25;;;7.70;99.90;;;;;;4991558;28;20224;-83
2020/12/13 06:48:56;;;;;;;2.70;2.50;;;7.80;99.90;;;;;;4996868;28;20255;-83
2020/12/13 06:51:29;;;;;;;4.05;3.22;;;8.00;99.90;;;;;;5005391;28;20236;-83
2020/12/13 06:53:56;;;;;;;3.40;3.10;;;7.80;99.90;;;;;;5009542;28;20197;-83
2020/12/13 06:56:24;;;;;;;3.15;2.95;;;7.80;99.90;;;;;;4994678;28;20256;-83
2020/12/13 06:58:58;;;;;;;3.53;3.22;;;7.80;99.90;;;;;;5012029;28;20197;-83
2020/12/13 07:01:29;;;;;;;3.65;3.35;;;7.80;99.90;;;;;;5001185;28;20197;-83
2020/12/13 07:03:58;;;;;;;4.13;3.00;;;7.80;99.90;;;;;;4993913;28;20284;-83
2020/12/13 07:06:43;;;;;;;3.75;3.20;;;7.70;99.90;;;;;;4997688;28;20698;-83
2020/12/13 07:09:12;;;;;;;3.28;2.60;;;7.60;99.90;;;;;;5005824;28;20280;-84
2020/12/13 07:11:40;;;;;;;2.90;2.53;;;7.40;99.90;;;;;;5001218;28;20198;-83
2020/12/13 07:14:09;;;;;;;2.70;2.10;;;7.50;99.90;;;;;;5013073;28;20217;-83
2020/12/13 07:16:38;;;;;;;2.50;2.05;;;7.60;99.90;;;;;;5012497;28;21078;-83
2020/12/13 07:19:07;;;;;;;2.35;1.73;;;7.70;99.90;;;;;;5013299;28;20194;-83
2020/12/13 07:21:34;;;;;;;2.13;1.65;;;7.60;99.90;;;;;;4997802;28;20213;-83
2020/12/13 07:24:02;;;;;;;1.95;1.85;;;7.40;99.90;;;;;;5010305;28;20311;-83
2020/12/13 07:26:30;;;;;;;2.75;1.75;;;7.10;99.90;;;;;;5006580;28;20198;-83
2020/12/13 07:28:57;;;;;;;2.13;1.92;;;7.10;99.90;;;;;;4996413;28;20831;-83
2020/12/13 07:31:24;;;;;;;2.30;2.10;;;7.40;99.90;;;;;;4996646;28;20194;-83
2020/12/13 07:33:51;;;;;;;2.67;1.35;;;7.10;99.90;;;;;;5004881;28;20596;-83
2020/12/13 07:36:18;;;;;;;2.13;1.95;;;7.20;99.90;;;;;;5011870;28;20217;-83
2020/12/13 07:38:45;;;;;;;2.05;1.85;;;7.30;99.90;;;;;;5002349;28;20589;-83
2020/12/13 07:41:17;;;;;;;3.22;2.45;;;7.50;99.90;;;;;;5003735;28;20744;-83
2020/12/13 07:43:57;;;;;;;2.60;2.30;;;7.70;99.90;;;;;;5010305;28;20761;-83
2020/12/13 07:46:25;;;;;;;3.85;2.30;;;7.80;99.90;;;;;;5011177;28;20717;-82
2020/12/13 07:49:02;;;;;;;2.90;2.70;;;7.60;99.90;;;;;;5009094;28;20263;-83
2020/12/13 07:51:28;;;;;;;4.15;2.55;;;7.50;99.90;;;;;;5001006;28;20225;-83
2020/12/13 07:53:55;;;;;;;2.95;2.60;;;7.40;99.90;;;;;;4996891;28;20201;-83
2020/12/13 07:56:28;;;;;;;2.50;2.30;;;7.10;99.90;;;;;;5006139;28;20658;-83
2020/12/13 07:59:07;;;;;;;4.45;4.15;;;7.00;99.90;;;;;;5002910;28;20202;-83
2020/12/13 08:01:34;;;;;;;2.83;2.63;;;7.10;99.90;;;;;;5007416;28;20221;-83
2020/12/13 08:04:00;;;;;;;2.90;2.60;;;7.10;99.90;;;;;;5011460;28;20217;-83
2020/12/13 08:06:27;;;;;;;3.33;2.65;;;7.30;99.90;;;;;;5011430;28;20248;-84
2020/12/13 08:08:53;;;;;;;2.60;2.40;;;7.00;99.90;;;;;;5012881;28;20217;-83
2020/12/13 08:11:20;;;;;;;5.57;4.00;;;7.00;99.90;;;;;;5012837;28;20200;-83
2020/12/13 08:13:49;;;;;;;3.17;2.88;;;6.90;99.90;;;;;;5001802;28;20264;-83
2020/12/13 08:16:16;;;;;;;3.15;2.85;;;6.90;99.90;;;;;;4998467;28;20896;-83
2020/12/13 08:18:49;;;;;;;3.25;2.95;;;7.10;99.90;;;;;;4993052;28;20249;-83
2020/12/13 08:21:24;;;;;;;3.38;3.08;;;7.00;99.90;;;;;;4994439;28;20230;-83
2020/12/13 08:23:55;;;;;;;3.63;3.28;;;7.20;99.90;;;;;;5000843;28;20260;-83
2020/12/13 08:26:22;;;;;;;4.63;3.58;;;7.00;99.90;;;;;;4999664;28;20277;-83
2020/12/13 08:28:51;;;;;;;4.07;3.25;;;7.10;99.90;;;;;;4993294;28;20205;-83
2020/12/13 08:31:23;;;;;;;3.67;3.28;;;7.10;99.90;;;;;;5003849;28;20196;-84
2020/12/13 08:33:58;;;;;;;4.57;3.30;;;7.20;99.90;;;;;;5011650;28;20237;-83
2020/12/13 08:36:25;;;;;;;3.95;3.58;;;7.20;99.90;;;;;;5002652;28;20619;-83
2020/12/13 08:39:06;;;;;;;3.83;3.25;;;7.20;99.90;;;;;;5009593;28;20229;-84
2020/12/13 08:41:34;;;;;;;6.15;5.53;;;7.10;99.90;;;;;;5000374;28;20236;-84
2020/12/13 08:44:01;;;;;;;11.95;8.80;;;7.00;99.90;;;;;;4991266;28;20232;-84
2020/12/13 08:46:37;;;;;;;24.42;15.90;;;7.20;99.90;;;;;;5009661;28;20217;-84
2020/12/13 08:49:04;;;;;;;14.18;11.55;;;7.10;99.90;;;;;;4991562;28;20565;-84
2020/12/13 08:51:31;;;;;;;5.18;4.68;;;7.40;99.90;;;;;;4992536;28;20438;-84
2020/12/13 08:54:02;;;;;;;19.20;13.95;;;7.50;99.90;;;;;;4999680;28;20228;-84
2020/12/13 08:56:34;;;;;;;29.80;26.73;;;7.40;99.90;;;;;;4998428;28;20256;-84
2020/12/13 08:59:02;;;;;;;18.85;16.83;;;7.30;99.90;;;;;;5010946;28;20198;-84
2020/12/13 09:01:31;;;;;;;23.55;19.63;;;7.40;99.90;;;;;;4998608;28;20659;-84
2020/12/13 09:03:57;;;;;;;29.42;21.38;;;7.40;99.90;;;;;;4991431;28;20225;-84
2020/12/13 09:06:32;;;;;;;17.10;15.32;;;7.40;99.90;;;;;;5017893;28;20615;-84
2020/12/13 09:09:09;;;;;;;15.10;13.73;;;7.40;99.90;;;;;;5012362;28;20273;-83
2020/12/13 09:11:35;;;;;;;8.73;7.47;;;7.40;99.90;;;;;;5012942;28;20252;-83
2020/12/13 09:14:03;;;;;;;7.63;6.85;;;7.80;99.90;;;;;;5011087;28;20247;-84
2020/12/13 09:16:31;;;;;;;6.22;4.43;;;7.50;99.90;;;;;;5012517;28;20193;-83
2020/12/13 09:19:08;;;;;;;6.47;5.10;;;7.40;99.90;;;;;;5027645;28;20289;-84
2020/12/13 09:21:49;;;;;;;5.60;5.10;;;7.60;99.90;;;;;;5027889;28;20858;-84
2020/12/13 09:24:18;;;;;;;5.38;4.72;;;7.60;99.90;;;;;;5030422;28;20232;-83
2020/12/13 09:27:05;;;;;;;4.95;4.55;;;7.50;99.90;;;;;;5012918;28;20679;-83
2020/12/13 09:29:34;;;;;;;5.00;3.95;;;7.80;99.90;;;;;;5031109;28;20196;-84
2020/12/13 09:32:01;;;;;;;4.47;4.07;;;8.20;99.90;;;;;;5030815;28;20232;-84
2020/12/13 09:34:27;;;;;;;19.10;14.88;;;7.90;99.90;;;;;;5029932;28;20262;-83
2020/12/13 09:36:54;;;;;;;21.27;16.55;;;8.10;99.90;;;;;;5028162;28;20194;-84
2020/12/13 09:39:20;;;;;;;13.05;11.75;;;8.20;99.90;;;;;;5011785;28;20240;-84
2020/12/13 09:41:47;;;;;;;5.18;4.70;;;8.00;99.90;;;;;;5010776;28;20193;-84
2020/12/13 09:44:13;;;;;;;4.35;3.95;;;7.90;99.90;;;;;;5010088;28;20252;-83
2020/12/13 09:46:40;;;;;;;3.80;3.30;;;8.10;99.90;;;;;;5011885;28;20197;-84
2020/12/13 09:49:08;;;;;;;4.65;4.20;;;8.10;99.90;;;;;;5010086;28;20225;-84
2020/12/13 09:51:35;;;;;;;6.05;3.70;;;8.20;99.90;;;;;;5020251;28;20334;-84
2020/12/13 09:54:02;;;;;;;3.97;3.63;;;8.40;99.90;;;;;;5017818;28;20193;-84
2020/12/13 09:56:29;;;;;;;4.05;3.65;;;8.50;99.90;;;;;;5010632;28;20252;-84
2020/12/13 09:58:55;;;;;;;4.18;3.78;;;8.50;99.90;;;;;;5020346;28;20192;-84
2020/12/13 10:01:22;;;;;;;3.45;3.15;;;8.40;99.90;;;;;;5018832;28;20205;-84
2020/12/13 10:03:53;;;;;;;4.25;3.83;;;8.70;99.90;;;;;;5014587;28;20257;-84
2020/12/13 10:09:15;;;;;;;3.78;3.05;;;8.50;99.90;;;;;;5012351;28;20198;-85
2020/12/13 10:11:43;;;;;;;3.33;3.03;;;8.60;99.90;;;;;;5013808;28;20205;-84
2020/12/13 10:14:11;;;;;;;3.90;3.50;;;8.40;99.90;;;;;;5015794;28;21140;-82
2020/12/13 10:16:38;;;;;;;4.53;3.03;;;8.60;99.90;;;;;;5013168;28;20638;-84
2020/12/13 10:19:05;;;;;;;3.97;3.55;;;8.40;99.90;;;;;;5010834;28;20205;-85
2020/12/13 10:21:33;;;;;;;3.13;2.92;;;8.40;99.90;;;;;;5012765;28;20193;-83
2020/12/13 10:23:59;;;;;;;18.75;4.22;;;8.10;99.50;;;;;;5012416;28;20213;-84
2020/12/13 10:26:28;;;;;;;2.22;2.03;;;8.20;99.80;;;;;;5023729;28;20763;-84
2020/12/13 10:28:56;;;;;;;3.88;2.40;;;7.90;99.00;;;;;;5030586;28;20200;-83
2020/12/13 10:31:26;;;;;;;2.10;1.90;;;7.90;99.40;;;;;;5017640;28;20663;-84
2020/12/13 10:33:53;;;;;;;2.33;2.20;;;7.70;98.90;;;;;;5011038;28;20232;-83
2020/12/13 10:36:20;;;;;;;2.70;2.50;;;7.70;99.20;;;;;;5023621;28;20231;-84
2020/12/13 10:38:48;;;;;;;3.15;1.77;;;7.70;99.30;;;;;;5028684;28;20192;-84
2020/12/13 10:41:15;;;;;;;2.35;2.15;;;7.80;99.80;;;;;;5020814;28;20229;-84
2020/12/13 10:43:42;;;;;;;2.25;2.05;;;7.80;99.70;;;;;;5017727;28;20682;-84
2020/12/13 10:46:09;;;;;;;1.60;1.50;;;7.90;99.90;;;;;;5026517;28;20551;-84
2020/12/13 10:48:35;;;;;;;2.97;2.13;;;7.90;99.60;;;;;;5020106;28;20201;-83
2020/12/13 10:51:02;;;;;;;2.20;2.00;;;7.90;99.10;;;;;;5011120;28;20193;-84
2020/12/13 10:53:29;;;;;;;1.90;1.75;;;8.00;98.60;;;;;;5016556;28;20225;-84
2020/12/13 10:55:56;;;;;;;2.00;1.80;;;8.00;98.90;;;;;;5012296;28;20240;-84
2020/12/13 10:58:22;;;;;;;2.00;1.90;;;7.80;98.40;;;;;;5015950;28;20227;-84
2020/12/13 11:00:49;;;;;;;23.60;17.20;;;7.90;98.50;;;;;;5024699;28;20260;-84
2020/12/13 11:03:16;;;;;;;11.23;9.75;;;7.90;98.30;;;;;;5009361;28;20579;-84
2020/12/13 11:05:42;;;;;;;4.70;3.25;;;8.10;98.90;;;;;;5011911;28;20188;-84
2020/12/13 11:08:09;;;;;;;3.70;3.17;;;8.00;98.40;;;;;;5017195;28;20749;-84
2020/12/13 11:10:37;;;;;;;3.67;3.28;;;8.00;98.50;;;;;;5015023;28;20242;-84
2020/12/13 11:13:04;;;;;;;3.28;2.65;;;7.80;98.00;;;;;;5010172;28;20646;-85
2020/12/13 11:15:30;;;;;;;3.30;3.00;;;7.90;98.70;;;;;;5008666;28;20674;-83
2020/12/13 11:17:56;;;;;;;3.60;2.10;;;8.00;98.40;;;;;;5017942;28;20228;-84
2020/12/13 11:20:23;;;;;;;2.25;2.10;;;8.20;98.80;;;;;;5029103;28;20208;-84
2020/12/13 11:22:49;;;;;;;2.40;2.20;;;8.20;98.10;;;;;;5030298;28;20283;-85
2020/12/13 11:25:16;;;;;;;3.28;2.97;;;8.40;98.00;;;;;;5023100;28;20267;-84
2020/12/13 11:27:44;;;;;;;4.43;3.90;;;8.40;98.00;;;;;;5017238;28;20733;-84
2020/12/13 11:30:11;;;;;;;2.35;2.15;;;8.30;98.40;;;;;;5010991;28;20697;-85
2020/12/13 11:32:37;;;;;;;2.97;2.40;;;8.30;98.70;;;;;;5009709;28;20201;-84
2020/12/13 11:35:05;;;;;;;2.55;2.25;;;8.20;98.70;;;;;;5011276;28;20258;-86
2020/12/13 11:37:32;;;;;;;2.80;2.60;;;8.20;98.60;;;;;;5017443;28;20251;-86
2020/12/13 11:39:58;;;;;;;3.78;2.40;;;8.30;98.80;;;;;;5030827;28;20564;-86
2020/12/13 11:42:25;;;;;;;2.90;2.60;;;8.30;98.80;;;;;;5014087;28;20618;-85
2020/12/13 11:44:52;;;;;;;7.28;4.13;;;8.10;98.90;;;;;;5015642;28;20232;-86
2020/12/13 11:47:19;;;;;;;4.85;3.40;;;8.20;99.30;;;;;;5029707;28;20784;-86
2020/12/13 11:49:45;;;;;;;3.25;2.65;;;8.20;98.90;;;;;;5013179;28;20213;-85
2020/12/13 11:52:12;;;;;;;5.90;5.20;;;8.20;98.40;;;;;;5026094;28;20708;-86
2020/12/13 11:54:38;;;;;;;6.75;6.20;;;8.30;98.50;;;;;;5032395;28;20196;-86
2020/12/13 11:57:05;;;;;;;7.50;5.35;;;8.30;98.60;;;;;;5032803;28;20595;-87
2020/12/13 11:59:31;;;;;;;7.72;5.78;;;8.40;98.60;;;;;;5033295;28;20213;-87
2020/12/13 12:01:58;;;;;;;7.65;6.10;;;8.30;99.10;;;;;;5031796;28;20561;-86
2020/12/13 12:04:25;;;;;;;9.73;7.90;;;8.40;98.70;;;;;;5032849;28;20648;-86
2020/12/13 12:06:51;;;;;;;3.03;2.70;;;8.60;98.90;;;;;;5032033;28;20259;-86
2020/12/13 12:09:17;;;;;;;4.22;3.25;;;8.60;98.30;;;;;;5019945;28;20197;-86
2020/12/13 12:11:44;;;;;;;2.28;2.00;;;8.60;98.40;;;;;;5025206;28;20196;-86
2020/12/13 12:14:11;;;;;;;4.63;3.83;;;8.30;97.30;;;;;;5029811;28;20236;-86
2020/12/13 12:16:39;;;;;;;5.05;3.55;;;8.20;97.60;;;;;;5032282;28;20193;-86
2020/12/13 12:19:07;;;;;;;3.78;2.90;;;8.20;98.00;;;;;;5032694;28;20251;-86
2020/12/13 12:21:34;;;;;;;6.22;3.20;;;8.00;98.10;;;;;;5021034;28;20221;-88
2020/12/13 12:24:02;;;;;;;2.65;2.45;;;8.00;97.90;;;;;;5012092;28;20269;-87
2020/12/13 12:26:31;;;;;;;3.30;3.10;;;8.00;97.70;;;;;;5012798;28;20644;-86
2020/12/13 12:28:59;;;;;;;3.25;2.95;;;8.00;97.90;;;;;;5012411;28;20209;-86
2020/12/13 12:31:26;;;;;;;2.47;2.28;;;8.00;98.20;;;;;;5017464;28;20189;-87
2020/12/13 12:33:52;;;;;;;3.78;3.38;;;7.90;98.00;;;;;;5022875;28;20206;-86
2020/12/13 12:36:21;;;;;;;3.55;2.45;;;7.70;98.40;;;;;;5016098;28;20197;-86
2020/12/13 12:38:48;;;;;;;5.50;5.00;;;7.80;98.50;;;;;;5024948;28;20576;-86
2020/12/13 12:41:16;;;;;;;5.85;2.85;;;7.90;98.40;;;;;;5020486;28;20189;-86
2020/12/13 12:43:43;;;;;;;1.70;1.60;;;8.00;98.20;;;;;;5019166;28;20317;-86
2020/12/13 12:46:10;;;;;;;2.22;1.80;;;8.00;97.90;;;;;;5019629;28;20268;-86
2020/12/13 12:48:36;;;;;;;5.70;4.28;;;8.40;98.00;;;;;;5019057;28;20270;-86
2020/12/13 12:51:03;;;;;;;4.47;3.90;;;8.20;97.30;;;;;;5005889;28;20647;-86
2020/12/13 12:53:46;;;;;;;5.07;4.25;;;8.10;97.50;;;;;;5013104;28;20204;-86
2020/12/13 12:56:13;;;;;;;13.30;12.02;;;8.20;97.90;;;;;;5013579;28;20205;-85
2020/12/13 12:58:49;;;;;;;13.23;12.02;;;8.20;97.60;;;;;;5024482;28;20267;-86
2020/12/13 13:01:18;;;;;;;5.18;4.68;;;8.10;97.60;;;;;;5030440;28;20224;-86
2020/12/13 13:03:48;;;;;;;3.42;3.00;;;7.80;97.80;;;;;;5031865;28;20698;-85